Camdenton, MO

11:54 AM CST on February 13, 2016 (GMT -0600)
KMOCAMDE4 | | Change Station
CLOSE
Current Station
Personal Weather Station
Location: CAMDENTON, MO
Elevation: 961 ft
Nearby Weather Stations

Elev 961 ft 38.00 °N, 92.75 °W | Updated 1 day ago

Cloudy
Cloudy
28 °F
Feels Like 20 °F
N
9
Wind Variable Wind from East
Gusts mph

Today
High -- | Low -- °F
--% Chance of Precip.
Yesterday
High -- | Low -- °F
Precip. -- in
Pressure 30.58 in
Visibility 10.0 miles
Clouds Overcast 7000 ft
Windchill 20 °F
Dew Point 1 °F
Humidity 30%
Rainfall in
Snow Depth Not available.
7:03 AM 5:47 PM
Waxing Crescent, 32% visible
METAR KAIZ 131735Z AUTO 05006KT 10SM OVC070 M07/M18 A3058 RMK AO1
Pressure 30.58 in
Visibility 10.0 miles
Clouds Overcast 7000 ft
Windchill 20 °F
Dew Point 1 °F
Humidity 30%
Rainfall in
Snow Depth Not available.
7:03 AM 5:47 PM
Waxing Crescent, 32% visible
METAR KAIZ 131735Z AUTO 05006KT 10SM OVC070 M07/M18 A3058 RMK AO1

10-Day Weather Forecast

Almanac

Astronomy

Feb. 13, 2016 Rise Set
Actual Time
Civil Twilight
Nautical Twilight
Astronomical Twilight
Moon
Length of Visible Light
Length of Day
Tomorrow will be .
, % of the Moon is Illuminated

Today's Extremes

State Highs State Lows

Community

WunderPhotos

Upload Photos

1,892,623 photos uploaded!

WunderBlog® & News

Nearby

Air Quality

  Air Quality AQ Index Pollutant
Not available.

Snow Depth

Station Depth Elevation

Earthquake Activity

City Distance Mag. Time & Date
Minimum magnitude displayed is 2.5.

Coastal Water Temperatures

Place Temperature

Stations

Nearby Weather Stations

Station Location Temp. Windchill Dew Point Humidity Wind Precip. Elev Updated Type
                   

Watches & Warnings

There are currently no watches in effect.